Weather History for Langdon, ND

Change the Weather History Date:

Tuesday, July 9, 2013

  Actual Average (KDVL) Record (KDVL)
Temperature  
Mean Temperature 63 °F -  
Max Temperature 71 °F 81 °F 96 °F (1970)
Min Temperature 55 °F 58 °F 40 °F (1968)
Degree Days  
Heating Degree Days 2    
Growing Degree Days 13 (Base 50)    
Moisture  
Dew Point 57 °F    
Average Humidity 87    
Maximum Humidity 100    
Minimum Humidity 73    
Precipitation  
Precipitation 0.63 in - - ()
Sea Level Pressure  
Sea Level Pressure 29.96 in    
Wind  
Wind Speed 13 mph (North)    
Max Wind Speed 22 mph    
Max Gust Speed 29 mph    
Visibility 9 miles    
Events Rain , Thunderstorm    
Averages and records for this station are not official NWS values.
T = Trace of Precipitation, MM = Missing Value Source: NWS Daily Summary

Daily Weather History Graph

Daily Weather History Graph

Search for Another Location

Airport:

Trip Planner

Search our weather history database for the weather conditions in past years. The results will help you decide how hot, cold, wet, or windy it might be!

Date:

Astronomy

Jul. 09, 2013 Rise Set
Actual Time 5:41 AM CDT 9:36 PM CDT
Civil Twilight 4:59 AM CDT 10:17 PM CDT
Nautical Twilight 4:02 AM CDT 11:13 PM CDT
Astronomical Twilight 2:30 AM CDT 12:44 AM CDT
Moon 7:18 AM CDT (7/9) 9:59 PM CDT (7/9)
Length of Visible Light 17h 17m
Length of Day
15h 55m
New Moon, 2% of the Moon is Illuminated
Jul 9
New Moon
Jul 15
First Quarter
Jul 22
Full
Jul 29
Last Quarter
Aug 6
New

Hourly Weather History & Observations

Time (CDT) Temp. Dew Point Humidity Pressure Visibility Wind Dir Wind Speed Gust Speed Precip Events Conditions
12:15 AM 71.6 °F 64.4 °F 78% 29.91 in 10.0 mi NE 11.5 mph - N/A   Mostly Cloudy
12:35 AM 71.6 °F 64.4 °F 78% 29.90 in 10.0 mi NNE 15.0 mph 21.9 mph N/A   Mostly Cloudy
12:55 AM 68.0 °F 62.6 °F 83% 29.90 in 10.0 mi NE 17.3 mph 24.2 mph N/A   Partly Cloudy
1:15 AM 68.0 °F 62.6 °F 83% 29.90 in 10.0 mi NE 12.7 mph - N/A   Scattered Clouds
1:35 AM 64.4 °F 60.8 °F 88% 29.88 in 6.0 mi NE 12.7 mph - 0.26 in Rain , Thunderstorm Heavy Rain
1:55 AM 64.4 °F 59.0 °F 83% 29.87 in 10.0 mi NE 13.8 mph 18.4 mph 0.32 in Thunderstorm Mostly Cloudy
2:15 AM 64.4 °F 59.0 °F 83% 29.91 in 10.0 mi NNE 6.9 mph - N/A Thunderstorm Mostly Cloudy
2:35 AM 64.4 °F 59.0 °F 83% 29.94 in 3.0 mi SSW 11.5 mph 17.3 mph 0.06 in Rain , Thunderstorm Light Rain
2:55 AM 62.6 °F 59.0 °F 88% 29.92 in 3.0 mi NE 5.8 mph - 0.19 in Rain , Thunderstorm Thunderstorms and Rain
3:15 AM 60.8 °F 60.8 °F 100% 29.93 in 3.0 mi Calm Calm - 0.03 in Rain Light Rain
3:35 AM 60.8 °F 60.8 °F 100% 29.87 in 3.0 mi ENE 15.0 mph - 0.09 in Rain Rain
3:55 AM 60.8 °F 60.8 °F 100% 29.83 in 9.0 mi ENE 18.4 mph 25.3 mph 0.11 in Rain Light Rain
4:15 AM 60.8 °F 59.0 °F 94% 29.84 in 10.0 mi ENE 13.8 mph - N/A   Mostly Cloudy
4:35 AM 60.8 °F 59.0 °F 94% 29.85 in 10.0 mi NE 17.3 mph 21.9 mph N/A Rain Light Rain
4:55 AM 60.8 °F 59.0 °F 94% 29.86 in 10.0 mi NE 16.1 mph 26.5 mph N/A   Overcast
5:15 AM 59.0 °F 59.0 °F 100% 29.87 in 10.0 mi NE 21.9 mph 28.8 mph N/A   Overcast
5:35 AM 59.0 °F 55.4 °F 88% 29.88 in 10.0 mi NE 20.7 mph 28.8 mph N/A   Mostly Cloudy
5:55 AM 57.2 °F 57.2 °F 100% 29.87 in 10.0 mi NNE 16.1 mph 23.0 mph N/A   Overcast
6:15 AM 57.2 °F 57.2 °F 100% 29.87 in 10.0 mi NNE 17.3 mph 23.0 mph N/A   Overcast
6:35 AM 57.2 °F 57.2 °F 100% 29.88 in 10.0 mi NE 12.7 mph - N/A   Overcast
6:55 AM 57.2 °F 57.2 °F 100% 29.88 in 10.0 mi NE 12.7 mph - N/A   Overcast
7:15 AM 57.2 °F 55.4 °F 94% 29.89 in 10.0 mi East 9.2 mph - N/A   Overcast
7:35 AM 57.2 °F 55.4 °F 94% 29.90 in 10.0 mi ENE 9.2 mph - N/A   Overcast
7:55 AM 57.2 °F 55.4 °F 94% 29.92 in 10.0 mi North 11.5 mph - N/A   Overcast
8:15 AM 57.2 °F 55.4 °F 94% 29.92 in 10.0 mi NNE 11.5 mph - N/A   Overcast
8:35 AM 57.2 °F 55.4 °F 94% 29.94 in 10.0 mi NNE 11.5 mph 17.3 mph N/A   Overcast
8:55 AM 57.2 °F 53.6 °F 88% 29.94 in 10.0 mi NNE 11.5 mph - N/A   Overcast
9:15 AM 57.2 °F 53.6 °F 88% 29.93 in 10.0 mi NE 10.4 mph - N/A   Overcast
9:35 AM 59.0 °F 55.4 °F 88% 29.92 in 10.0 mi NE 9.2 mph - N/A   Mostly Cloudy
9:55 AM 59.0 °F 55.4 °F 88% 29.92 in 10.0 mi NE 11.5 mph - N/A   Mostly Cloudy
10:15 AM 60.8 °F 57.2 °F 88% 29.94 in 10.0 mi NNE 12.7 mph - N/A   Mostly Cloudy
10:35 AM 59.0 °F 55.4 °F 88% 29.93 in 7.0 mi NE 12.7 mph - N/A Rain Light Rain
10:55 AM 60.8 °F 57.2 °F 88% 29.95 in 10.0 mi NNE 11.5 mph - N/A   Scattered Clouds
11:15 AM 62.6 °F 57.2 °F 82% 29.97 in 10.0 mi North 16.1 mph 21.9 mph N/A   Mostly Cloudy
11:35 AM 62.6 °F 55.4 °F 77% 29.98 in 10.0 mi North 15.0 mph 20.7 mph N/A   Overcast
11:55 AM 62.6 °F 55.4 °F 77% 29.99 in 10.0 mi NNW 15.0 mph 20.7 mph N/A   Overcast
12:15 PM 62.6 °F 57.2 °F 82% 29.99 in 10.0 mi North 13.8 mph 20.7 mph N/A   Overcast
12:35 PM 60.8 °F 55.4 °F 82% 29.98 in 8.0 mi North 18.4 mph 21.9 mph 0.01 in Rain Light Rain
12:55 PM 59.0 °F 55.4 °F 88% 30.00 in 10.0 mi NNW 11.5 mph 17.3 mph 0.01 in   Overcast
1:15 PM 62.6 °F 57.2 °F 82% 29.99 in 10.0 mi North 11.5 mph - N/A   Mostly Cloudy
1:35 PM 62.6 °F 57.2 °F 82% 29.98 in 10.0 mi North 9.2 mph - N/A   Mostly Cloudy
1:55 PM 64.4 °F 57.2 °F 77% 29.99 in 10.0 mi North 11.5 mph 16.1 mph N/A   Mostly Cloudy
2:15 PM 62.6 °F 57.2 °F 82% 29.99 in 10.0 mi North 15.0 mph - N/A   Mostly Cloudy
2:35 PM 62.6 °F 57.2 °F 82% 29.99 in 10.0 mi North 12.7 mph - N/A   Overcast
2:55 PM 64.4 °F 57.2 °F 77% 29.99 in 10.0 mi NNW 13.8 mph 17.3 mph N/A   Mostly Cloudy
3:15 PM 62.6 °F 55.4 °F 77% 29.99 in 10.0 mi NNW 10.4 mph 18.4 mph N/A   Mostly Cloudy
3:35 PM 64.4 °F 57.2 °F 77% 29.99 in 10.0 mi NNW 15.0 mph - N/A   Overcast
3:55 PM 64.4 °F 57.2 °F 77% 30.00 in 10.0 mi NNW 12.7 mph - N/A   Overcast
4:15 PM 62.6 °F 55.4 °F 77% 30.00 in 10.0 mi NNW 13.8 mph - N/A   Overcast
4:35 PM 62.6 °F 55.4 °F 77% 30.01 in 10.0 mi NNW 12.7 mph - N/A   Overcast
4:55 PM 62.6 °F 55.4 °F 77% 30.00 in 10.0 mi NNW 15.0 mph 19.6 mph N/A   Mostly Cloudy
5:15 PM 62.6 °F 55.4 °F 77% 30.01 in 10.0 mi NNW 13.8 mph - N/A   Overcast
5:35 PM 62.6 °F 55.4 °F 77% 30.01 in 10.0 mi NNW 13.8 mph - N/A   Overcast
5:55 PM 62.6 °F 57.2 °F 82% 30.01 in 10.0 mi NW 16.1 mph 20.7 mph N/A   Overcast
6:15 PM 64.4 °F 57.2 °F 77% 30.01 in 10.0 mi NW 16.1 mph 19.6 mph N/A   Mostly Cloudy
6:35 PM 62.6 °F 55.4 °F 77% 30.02 in 10.0 mi NW 15.0 mph 19.6 mph N/A   Partly Cloudy
6:55 PM 64.4 °F 55.4 °F 73% 30.02 in 10.0 mi NNW 12.7 mph 18.4 mph N/A   Clear
7:15 PM 64.4 °F 55.4 °F 73% 30.02 in 10.0 mi NW 15.0 mph - N/A   Clear
7:35 PM 64.4 °F 55.4 °F 73% 30.02 in 10.0 mi NW 12.7 mph 17.3 mph N/A   Clear
7:55 PM 64.4 °F 55.4 °F 73% 30.02 in 10.0 mi NW 10.4 mph - N/A   Clear
8:15 PM 62.6 °F 55.4 °F 77% 30.02 in 10.0 mi WNW 10.4 mph - N/A   Clear
8:35 PM 62.6 °F 57.2 °F 82% 30.02 in 10.0 mi WNW 8.1 mph - N/A   Clear
8:55 PM 60.8 °F 57.2 °F 88% 30.03 in 10.0 mi WNW 9.2 mph - N/A   Clear
9:15 PM 59.0 °F 57.2 °F 94% 30.03 in 10.0 mi WNW 9.2 mph - N/A   Clear
9:35 PM 59.0 °F 57.2 °F 94% 30.03 in 9.0 mi West 8.1 mph - N/A   Clear
9:55 PM 57.2 °F 57.2 °F 100% 30.04 in 9.0 mi West 9.2 mph - N/A   Clear
10:15 PM 57.2 °F 57.2 °F 100% 30.04 in 10.0 mi West 9.2 mph - N/A   Clear
10:35 PM 57.2 °F 55.4 °F 94% 30.05 in 10.0 mi West 8.1 mph - N/A   Clear
10:55 PM 57.2 °F 55.4 °F 94% 30.05 in 10.0 mi West 8.1 mph - N/A   Clear
11:15 PM 55.4 °F 55.4 °F 100% 30.05 in 9.0 mi West 8.1 mph - N/A   Clear
11:35 PM 55.4 °F 55.4 °F 100% 30.05 in 9.0 mi West 8.1 mph - N/A   Clear
11:55 PM 55.4 °F 53.6 °F 94% 30.06 in 9.0 mi WNW 9.2 mph - N/A   Clear